Omaha, NE (68120)

11:47 AM CST on January 25, 2015 (GMT -0600)
Prairie Point 163rd and Q St | Change Station
CLOSE
Current Station
Personal Weather Station
Location: Omaha, NE
Elevation: 1200 ft
Nearby Weather Stations

Elev 1200 ft 41.21 °N, 96.17 °W | Updated 4 seconds ago

Overcast
Overcast
37.1 °F
Feels Like 34 °F
N
4.0
Wind Variable Wind from NNE
Gusts 21.0 mph

Today
High -- | Low -- °F
--% Chance of Precip.
Yesterday
High -- | Low -- °F
Precip. -- in
7:42 AM 5:32 PM
Waxing Crescent, 34% visible
Pressure 29.97 in
Visibility 10.0 miles
Clouds Overcast 1300 ft
Windchill 34 °F
Dew Point 33 °F
Humidity 86%
Rainfall 0.00 in
Snow Depth Not available.
UV 1 out of 12
Pollen .10 out of 12
Air Quality Not available.
Flu Activity Not available.
METAR KMLE 251735Z AUTO 35008G16KT 310V020 10SM OVC013 04/00 A2997 RMK AO2 T00360002

More Conditions Fewer Conditions

Pressure 29.97 in
Visibility 10.0 miles
Clouds Overcast 1300 ft
Windchill 34 °F
Dew Point 33 °F
Humidity 86%
Rainfall 0.00 in
Snow Depth Not available.
UV 1 out of 12
Pollen .10 out of 12
Air Quality Not available.
Flu Activity Not available.
METAR KMLE 251735Z AUTO 35008G16KT 310V020 10SM OVC013 04/00 A2997 RMK AO2 T00360002

More Conditions Fewer Conditions

10-Day Weather Forecast

Almanac

Astronomy

Jan. 25, 2015 Rise Set
Actual Time
Civil Twilight
Nautical Twilight
Astronomical Twilight
Moon
Length of Visible Light
Length of Day
Tomorrow will be .
, % of the Moon is Illuminated

Today's Extremes

State Highs State Lows

Community

WunderPhotos

Upload Photos

1,790,002 photos uploaded!

WunderBlogs® & News

Nearby

Air Quality

  Air Quality AQ Index Pollutant
Not available.

Snow Depth

Station Depth Elevation

Earthquake Activity

City Distance Mag. Time & Date
Minimum magnitude displayed is 2.5.

Coastal Water Temperatures

Place Temperature

Nearby Weather Stations